Time;durP1;ratioP1;P1;durP2;ratioP2;P2;SDS_P1;SDS_P2;PMS_P1;PMS_P2;Temp;Humidity;BMP_temperature;BMP_pressure;BME280_temperature;BME280_humidity;BME280_pressure;Samples;Min_cycle;Max_cycle;Signal;HPM_P1;HPM_P2
2023/10/03 00:00:31;;;;;;;16.52;6.70;;;;;;;22.89;100.00;100798.13;4942527;29;20593;-41
2023/10/03 00:02:59;;;;;;;16.80;7.03;;;;;;;22.94;100.00;100785.25;4946781;29;20058;-41
2023/10/03 00:05:31;;;;;;;17.23;6.70;;;;;;;22.91;100.00;100795.53;4953125;29;20051;-41
2023/10/03 00:08:00;;;;;;;17.48;7.18;;;;;;;22.91;100.00;100789.88;4949759;29;20415;-42
2023/10/03 00:10:30;;;;;;;16.83;6.28;;;;;;;22.91;100.00;100781.38;4952339;29;20097;-42
2023/10/03 00:12:57;;;;;;;17.60;7.07;;;;;;;22.89;100.00;100766.16;4950253;29;20616;-42
2023/10/03 00:15:24;;;;;;;17.17;6.10;;;;;;;22.91;100.00;100763.59;4939160;28;20118;-44
2023/10/03 00:17:55;;;;;;;15.82;6.45;;;;;;;22.89;100.00;100766.16;4940929;29;20089;-41
2023/10/03 00:20:22;;;;;;;16.17;6.20;;;;;;;22.88;100.00;100758.94;4943061;29;20058;-40
2023/10/03 00:22:50;;;;;;;17.30;6.40;;;;;;;22.91;100.00;100757.94;4952720;29;20039;-41
2023/10/03 00:25:18;;;;;;;18.45;7.30;;;;;;;22.87;100.00;100755.31;4950807;29;20878;-42
2023/10/03 00:27:51;;;;;;;16.02;6.07;;;;;;;22.90;100.00;100756.34;4952084;29;20124;-41
2023/10/03 00:30:19;;;;;;;16.17;6.38;;;;;;;22.89;100.00;100741.41;4934117;28;20474;-43
2023/10/03 00:32:48;;;;;;;16.00;6.63;;;;;;;22.90;100.00;100739.34;4941666;29;20780;-48
2023/10/03 00:35:16;;;;;;;16.23;6.78;;;;;;;22.88;100.00;100728.50;4934139;29;20066;-41
2023/10/03 00:37:46;;;;;;;17.02;6.93;;;;;;;22.89;100.00;100720.78;4938513;29;20059;-42
2023/10/03 00:42:57;;;;;;;16.08;6.15;;;;;;;22.91;100.00;100715.41;4944174;29;20065;-41
2023/10/03 00:45:26;;;;;;;15.70;6.15;;;;;;;22.91;100.00;100715.41;4940365;29;20505;-41
2023/10/03 00:47:54;;;;;;;16.63;6.18;;;;;;;22.87;100.00;100723.34;4933058;29;20060;-41
2023/10/03 00:50:26;;;;;;;16.25;6.28;;;;;;;22.89;100.00;100717.94;4948312;29;20484;-40
2023/10/03 00:52:55;;;;;;;15.60;6.13;;;;;;;22.87;100.00;100712.00;4949998;29;20051;-42
2023/10/03 00:55:32;;;;;;;16.27;6.50;;;;;;;22.86;100.00;100714.06;4937671;29;20055;-46
2023/10/03 00:58:07;;;;;;;16.52;6.68;;;;;;;22.88;100.00;100717.16;4943587;29;20044;-41
2023/10/03 01:00:39;;;;;;;14.93;6.03;;;;;;;22.83;100.00;100705.78;4938969;28;21459;-44
2023/10/03 01:03:23;;;;;;;14.35;5.65;;;;;;;22.86;100.00;100701.94;4939825;29;20449;-41
2023/10/03 01:05:53;;;;;;;16.50;6.22;;;;;;;22.89;100.00;100700.94;4932836;29;20043;-39
2023/10/03 01:08:21;;;;;;;16.08;5.97;;;;;;;22.87;100.00;100695.78;4940456;29;20051;-41
2023/10/03 01:10:47;;;;;;;17.60;6.25;;;;;;;22.88;100.00;100688.81;4949375;29;20496;-42
2023/10/03 01:13:14;;;;;;;14.52;5.50;;;;;;;22.84;100.00;100691.13;4922590;29;20134;-42
2023/10/03 01:15:41;;;;;;;15.25;6.35;;;;;;;22.85;100.00;100689.81;4932439;29;20236;-44
2023/10/03 01:18:13;;;;;;;16.02;6.07;;;;;;;22.82;100.00;100681.56;4942336;28;20075;-42
2023/10/03 01:20:48;;;;;;;15.52;6.15;;;;;;;22.81;100.00;100683.63;4950218;29;20055;-41
2023/10/03 01:23:16;;;;;;;16.58;6.38;;;;;;;22.84;100.00;100674.09;4942952;28;20051;-45
2023/10/03 01:25:43;;;;;;;14.68;6.07;;;;;;;22.83;100.00;100655.56;4934699;29;20514;-44
2023/10/03 01:28:13;;;;;;;15.20;6.05;;;;;;;22.86;100.00;100648.09;4945518;29;20102;-40
2023/10/03 01:30:43;;;;;;;16.30;6.75;;;;;;;22.87;100.00;100652.47;4948677;29;20525;-40
2023/10/03 01:33:11;;;;;;;15.15;6.22;;;;;;;22.86;100.00;100650.94;4950433;28;20047;-40
2023/10/03 01:35:38;;;;;;;15.80;5.80;;;;;;;22.89;100.00;100647.09;4943305;29;20051;-44
2023/10/03 01:38:05;;;;;;;15.13;5.65;;;;;;;22.90;100.00;100648.63;4946533;29;20110;-39
2023/10/03 01:40:32;;;;;;;13.82;5.75;;;;;;;22.89;100.00;100635.75;4942167;29;20605;-42
2023/10/03 01:42:59;;;;;;;16.48;5.90;;;;;;;22.90;100.00;100632.41;4942410;29;20047;-39
2023/10/03 01:45:27;;;;;;;15.68;6.50;;;;;;;22.90;100.00;100625.97;4948822;29;20058;-38
2023/10/03 01:47:58;;;;;;;16.88;5.57;;;;;;;22.88;100.00;100617.97;4948146;28;20438;-42
2023/10/03 01:50:29;;;;;;;17.05;5.78;;;;;;;23.03;100.00;100618.63;4947702;28;20518;-40
2023/10/03 01:52:57;;;;;;;16.10;5.68;;;;;;;22.96;100.00;100616.25;4950464;29;20079;-41
2023/10/03 01:55:23;;;;;;;14.98;5.80;;;;;;;22.93;100.00;100607.94;4949516;29;20070;-41
2023/10/03 01:57:50;;;;;;;17.05;5.85;;;;;;;22.90;100.00;100598.41;4941389;29;20522;-41
2023/10/03 02:00:26;;;;;;;16.10;5.93;;;;;;;22.90;100.00;100597.63;4943764;29;20275;-40
2023/10/03 02:02:56;;;;;;;19.42;6.93;;;;;;;22.90;100.00;100577.78;4943704;28;20512;-40
2023/10/03 02:05:24;;;;;;;15.57;6.00;;;;;;;22.88;100.00;100564.09;4935438;29;20063;-41
2023/10/03 02:07:52;;;;;;;15.43;6.00;;;;;;;22.89;100.00;100571.34;4935679;29;20574;-45
2023/10/03 02:10:19;;;;;;;15.65;5.82;;;;;;;22.90;100.00;100549.44;4946284;29;20525;-41
2023/10/03 02:12:49;;;;;;;17.23;6.65;;;;;;;22.87;100.00;100553.28;4949834;29;20051;-40
2023/10/03 02:15:16;;;;;;;15.48;6.15;;;;;;;22.87;100.00;100556.09;4936177;29;20069;-46
2023/10/03 02:17:46;;;;;;;19.13;6.70;;;;;;;22.87;100.00;100537.06;4940674;29;20106;-40
2023/10/03 02:20:16;;;;;;;16.08;6.03;;;;;;;22.86;100.00;100537.56;4946059;29;20071;-40
2023/10/03 02:22:43;;;;;;;16.45;6.20;;;;;;;22.86;100.00;100529.84;4940249;29;20142;-41
2023/10/03 02:25:09;;;;;;;14.55;5.65;;;;;;;22.85;100.00;100516.16;4949692;29;20078;-41
2023/10/03 02:27:36;;;;;;;18.23;6.57;;;;;;;22.86;100.00;100523.38;4933745;29;20082;-41
2023/10/03 02:30:11;;;;;;;13.65;5.63;;;;;;;22.87;100.00;100520.03;4936757;29;20070;-42
2023/10/03 02:32:40;;;;;;;14.40;5.68;;;;;;;22.86;100.00;100509.22;4940227;28;20130;-42
2023/10/03 02:35:09;;;;;;;18.02;6.40;;;;;;;22.84;100.00;100509.72;4936969;29;20062;-43
2023/10/03 02:37:36;;;;;;;16.77;6.45;;;;;;;22.84;100.00;100503.25;4936026;29;20075;-42
2023/10/03 02:40:07;;;;;;;14.80;6.10;;;;;;;22.83;100.00;100499.66;4931271;29;20115;-48
2023/10/03 02:42:38;;;;;;;14.45;6.10;;;;;;;22.85;100.00;100494.25;4945006;29;20043;-44
2023/10/03 02:45:06;;;;;;;17.33;5.63;;;;;;;22.84;100.00;100494.75;4940686;29;20079;-40
2023/10/03 02:47:35;;;;;;;14.90;5.50;;;;;;;22.79;100.00;100489.84;4938893;29;20059;-43
2023/10/03 02:50:02;;;;;;;15.30;6.05;;;;;;;22.82;100.00;100488.84;4934545;29;20124;-41
2023/10/03 02:52:29;;;;;;;14.13;5.57;;;;;;;22.81;100.00;100488.06;4930868;29;20059;-41
2023/10/03 02:54:55;;;;;;;15.90;5.50;;;;;;;22.82;100.00;100488.84;4930994;29;20056;-41
2023/10/03 02:57:22;;;;;;;15.02;5.93;;;;;;;22.81;100.00;100484.47;4941475;29;20051;-45
2023/10/03 02:59:49;;;;;;;16.17;5.75;;;;;;;22.79;100.00;100484.19;4953584;29;20075;-42
2023/10/03 03:02:16;;;;;;;15.75;5.53;;;;;;;22.82;100.00;100466.16;4950554;29;20043;-42
2023/10/03 03:04:43;;;;;;;15.02;6.10;;;;;;;22.82;100.00;100460.50;4948915;28;20048;-40
2023/10/03 03:07:10;;;;;;;14.68;5.97;;;;;;;22.80;100.00;100454.56;4934469;29;20135;-44
2023/10/03 03:09:36;;;;;;;15.10;5.47;;;;;;;22.81;100.00;100459.72;4937292;29;20166;-41
2023/10/03 03:12:06;;;;;;;13.40;5.32;;;;;;;22.84;100.00;100460.75;4946761;29;20091;-41
2023/10/03 03:14:32;;;;;;;16.02;6.13;;;;;;;22.83;100.00;100467.72;4935020;29;20070;-44
2023/10/03 03:16:59;;;;;;;16.00;6.00;;;;;;;22.80;100.00;100474.38;4938131;29;20418;-41
2023/10/03 03:19:27;;;;;;;17.63;6.18;;;;;;;22.81;100.00;100454.03;4939200;29;20121;-41
2023/10/03 03:21:57;;;;;;;15.95;5.85;;;;;;;22.80;100.00;100448.88;4938432;28;20139;-41
2023/10/03 03:24:33;;;;;;;17.95;5.95;;;;;;;22.82;100.00;100449.94;4948771;29;20098;-38
2023/10/03 03:27:00;;;;;;;15.15;6.07;;;;;;;22.80;100.00;100449.66;4951208;29;20622;-43
2023/10/03 03:29:36;;;;;;;14.55;5.43;;;;;;;22.81;100.00;100453.28;4938215;29;20047;-42
2023/10/03 03:32:04;;;;;;;13.93;5.30;;;;;;;22.78;100.00;100459.97;4945110;29;20067;-44
2023/10/03 03:34:31;;;;;;;15.50;5.70;;;;;;;22.81;100.00;100461.78;4945099;29;20047;-42
2023/10/03 03:37:15;;;;;;;14.43;5.60;;;;;;;22.79;100.00;100450.19;4945950;29;20083;-43
2023/10/03 03:42:40;;;;;;;15.40;5.30;;;;;;;22.75;100.00;100443.97;4919753;29;20083;-40
2023/10/03 03:45:07;;;;;;;14.88;5.55;;;;;;;22.77;100.00;100445.00;4946520;29;20829;-40
2023/10/03 03:47:33;;;;;;;15.52;6.03;;;;;;;22.74;100.00;100443.19;4943969;29;20044;-43
2023/10/03 03:50:10;;;;;;;15.68;6.03;;;;;;;22.73;100.00;100452.19;4937170;29;20054;-41
2023/10/03 03:52:38;;;;;;;15.55;6.25;;;;;;;22.77;100.00;100458.41;4934669;28;20079;-42
2023/10/03 03:55:08;;;;;;;17.75;5.63;;;;;;;22.75;100.00;100467.41;4934076;29;20063;-42
2023/10/03 03:57:35;;;;;;;16.52;6.15;;;;;;;22.77;100.00;100479.03;4945728;29;20108;-41
2023/10/03 04:00:13;;;;;;;14.43;5.43;;;;;;;22.77;100.00;100486.75;4951296;29;20055;-43
2023/10/03 04:02:40;;;;;;;12.27;4.70;;;;;;;22.76;100.00;100477.47;4942336;29;20050;-40
2023/10/03 04:05:08;;;;;;;15.85;6.15;;;;;;;22.75;100.00;100473.06;4916690;29;20841;-40
2023/10/03 04:07:35;;;;;;;14.15;5.35;;;;;;;22.76;100.00;100485.19;4949687;29;20482;-41
2023/10/03 04:10:03;;;;;;;16.50;6.22;;;;;;;22.75;100.00;100484.41;4941012;28;20055;-40
2023/10/03 04:12:29;;;;;;;13.48;5.45;;;;;;;22.76;100.00;100483.16;4945579;28;20149;-41
2023/10/03 04:14:56;;;;;;;17.58;6.65;;;;;;;22.75;100.00;100483.66;4945319;28;20721;-41
2023/10/03 04:17:22;;;;;;;14.80;5.78;;;;;;;22.75;100.00;100475.91;4942521;29;20153;-44
2023/10/03 04:19:49;;;;;;;13.70;5.22;;;;;;;22.73;100.00;100492.66;4933362;29;20048;-40
2023/10/03 04:22:16;;;;;;;14.82;5.25;;;;;;;22.75;100.00;100484.41;4944998;29;20288;-42
2023/10/03 04:24:42;;;;;;;15.85;5.60;;;;;;;22.73;100.00;100478.50;4942187;29;20051;-44
2023/10/03 04:27:10;;;;;;;14.48;5.35;;;;;;;22.74;100.00;100482.09;4950528;28;20075;-40
2023/10/03 04:29:37;;;;;;;15.85;5.32;;;;;;;22.73;100.00;100489.81;4941609;29;20054;-41
2023/10/03 04:32:03;;;;;;;15.05;5.63;;;;;;;22.75;100.00;100487.25;4941964;28;20383;-42
2023/10/03 04:34:30;;;;;;;15.30;5.50;;;;;;;22.72;100.00;100479.00;4941127;29;20066;-40
2023/10/03 04:36:57;;;;;;;15.60;5.53;;;;;;;22.75;100.00;100483.66;4942577;29;20228;-45
2023/10/03 04:39:24;;;;;;;18.13;6.35;;;;;;;22.74;100.00;100490.63;4940656;29;20130;-41
2023/10/03 04:41:50;;;;;;;16.55;6.43;;;;;;;22.76;100.00;100491.66;4941042;29;20229;-40
2023/10/03 04:44:17;;;;;;;13.90;5.22;;;;;;;22.74;100.00;100487.78;4937277;28;20067;-41
2023/10/03 04:46:45;;;;;;;14.80;5.05;;;;;;;22.72;100.00;100487.50;4944008;28;20066;-40
2023/10/03 04:49:12;;;;;;;16.63;6.75;;;;;;;22.72;100.00;100490.31;4944173;29;20478;-42
2023/10/03 04:51:39;;;;;;;16.90;6.13;;;;;;;22.72;100.00;100490.31;4934038;29;20151;-41
2023/10/03 04:54:06;;;;;;;18.65;5.95;;;;;;;22.71;100.00;100494.44;4951199;29;20066;-41
2023/10/03 04:56:32;;;;;;;15.80;5.32;;;;;;;22.71;100.00;100495.22;4942372;29;20056;-43
2023/10/03 04:59:00;;;;;;;14.93;5.40;;;;;;;22.71;100.00;100488.78;4946085;29;20082;-40
2023/10/03 05:01:27;;;;;;;15.63;6.90;;;;;;;22.70;100.00;100492.88;4947229;28;20055;-40
2023/10/03 05:03:54;;;;;;;14.13;5.45;;;;;;;22.71;100.00;100488.78;4937709;29;20070;-40
2023/10/03 05:06:21;;;;;;;18.20;6.35;;;;;;;22.72;100.00;100479.78;4932734;29;20586;-41
2023/10/03 05:08:48;;;;;;;14.90;5.43;;;;;;;22.71;100.00;100483.88;4949742;29;20055;-41
2023/10/03 05:11:14;;;;;;;16.02;5.85;;;;;;;22.70;100.00;100484.38;4951379;29;20055;-42
2023/10/03 05:13:43;;;;;;;15.07;5.63;;;;;;;22.70;100.00;100498.56;4937683;28;20063;-40
2023/10/03 05:16:10;;;;;;;16.33;5.97;;;;;;;22.70;100.00;100502.16;4942537;29;20070;-43
2023/10/03 05:18:37;;;;;;;15.77;5.85;;;;;;;22.71;100.00;100500.13;4944664;28;20106;-43
2023/10/03 05:21:04;;;;;;;15.63;6.05;;;;;;;22.70;100.00;100488.00;4934683;29;20620;-42
2023/10/03 05:23:31;;;;;;;15.15;5.85;;;;;;;22.70;100.00;100485.16;4939320;29;20048;-43
2023/10/03 05:25:57;;;;;;;18.42;6.55;;;;;;;22.71;100.00;100500.13;4946586;29;20070;-41
2023/10/03 05:28:24;;;;;;;16.80;5.32;;;;;;;22.73;100.00;100480.53;4939216;29;20490;-44
2023/10/03 05:30:52;;;;;;;15.63;6.13;;;;;;;22.70;100.00;100481.56;4945672;28;20137;-42
2023/10/03 05:33:20;;;;;;;15.32;5.20;;;;;;;22.71;100.00;100502.97;4936240;29;20115;-44
2023/10/03 05:35:47;;;;;;;15.07;5.45;;;;;;;22.70;100.00;100492.88;4941812;29;20058;-45
2023/10/03 05:38:13;;;;;;;13.73;5.05;;;;;;;22.69;100.00;100497.78;4948165;29;20063;-41
2023/10/03 05:40:40;;;;;;;16.98;5.85;;;;;;;22.69;100.00;100502.69;4948189;29;20058;-41
2023/10/03 05:43:07;;;;;;;17.45;6.00;;;;;;;22.69;100.00;100486.47;4950105;29;20055;-41
2023/10/03 05:45:35;;;;;;;16.77;5.65;;;;;;;22.71;100.00;100514.28;4949615;29;20059;-41
2023/10/03 05:48:03;;;;;;;17.25;5.90;;;;;;;22.72;100.00;100513.78;4943230;29;20469;-40
2023/10/03 05:50:31;;;;;;;16.10;5.63;;;;;;;22.71;100.00;100520.72;4933895;29;20486;-40
2023/10/03 05:52:59;;;;;;;17.73;6.95;;;;;;;22.68;100.00;100529.47;4942393;29;20518;-41
2023/10/03 05:55:26;;;;;;;16.73;6.15;;;;;;;22.68;100.00;100520.97;4942446;29;20054;-45
2023/10/03 05:57:52;;;;;;;20.73;6.40;;;;;;;22.70;100.00;100539.00;4949219;29;20074;-43
2023/10/03 06:00:19;;;;;;;18.05;6.72;;;;;;;22.73;100.00;100557.06;4936180;28;20062;-40
2023/10/03 06:02:50;;;;;;;18.15;6.15;;;;;;;22.70;100.00;100538.22;4940427;29;20510;-41
2023/10/03 06:05:17;;;;;;;17.40;6.22;;;;;;;22.71;100.00;100522.78;4936245;29;20061;-40
2023/10/03 06:07:44;;;;;;;20.42;6.22;;;;;;;22.70;100.00;100561.69;4931938;29;20115;-41
2023/10/03 06:10:13;;;;;;;15.48;5.63;;;;;;;22.80;100.00;100543.19;4938612;28;20086;-42
2023/10/03 06:12:40;;;;;;;17.40;6.20;;;;;;;22.75;100.00;100549.59;4939886;29;20114;-40
2023/10/03 06:15:07;;;;;;;19.00;6.97;;;;;;;22.77;100.00;100555.53;4946976;29;20055;-41
2023/10/03 06:17:35;;;;;;;16.20;6.10;;;;;;;22.78;100.00;100556.31;4946188;28;20114;-44
2023/10/03 06:20:03;;;;;;;16.15;6.10;;;;;;;22.73;100.00;100551.38;4948157;29;20075;-38
2023/10/03 06:22:32;;;;;;;18.25;5.90;;;;;;;22.75;100.00;100568.66;4949901;29;20047;-40
2023/10/03 06:24:59;;;;;;;17.23;5.68;;;;;;;22.74;100.00;100576.38;4949923;29;20090;-41
2023/10/03 06:27:29;;;;;;;17.38;6.78;;;;;;;22.75;100.00;100574.34;4948181;29;20058;-40
2023/10/03 06:29:56;;;;;;;15.45;6.20;;;;;;;22.73;100.00;100555.00;4942343;29;20050;-39
2023/10/03 06:32:23;;;;;;;18.05;6.22;;;;;;;22.75;100.00;100565.84;4946107;29;20055;-45
2023/10/03 06:34:50;;;;;;;14.50;5.95;;;;;;;22.74;100.00;100589.78;4947489;29;21834;-40
2023/10/03 06:37:16;;;;;;;14.93;5.40;;;;;;;22.75;100.00;100580.00;4944611;29;20090;-39
2023/10/03 06:39:43;;;;;;;15.57;5.63;;;;;;;22.74;100.00;100561.47;4948638;29;20520;-41
2023/10/03 06:42:10;;;;;;;16.58;5.60;;;;;;;22.75;100.00;100589.25;4931276;29;20493;-40
2023/10/03 06:44:36;;;;;;;17.27;5.65;;;;;;;22.77;100.00;100583.09;4948814;29;20062;-43
2023/10/03 06:47:04;;;;;;;13.52;5.10;;;;;;;22.75;100.00;100589.25;4940331;28;20490;-45
2023/10/03 06:49:31;;;;;;;16.10;5.95;;;;;;;22.76;100.00;100596.50;4937392;28;20047;-42
2023/10/03 06:52:01;;;;;;;15.30;5.35;;;;;;;22.75;100.00;100600.59;4938332;29;20425;-43
2023/10/03 06:54:29;;;;;;;16.45;5.65;;;;;;;22.72;100.00;100586.69;4942501;29;20058;-40
2023/10/03 06:56:56;;;;;;;16.02;5.85;;;;;;;22.77;100.00;100595.22;4940349;29;20047;-41
2023/10/03 06:59:22;;;;;;;15.48;5.70;;;;;;;22.83;100.00;100603.75;4943220;29;20520;-42
2023/10/03 07:01:49;;;;;;;14.40;5.40;;;;;;;22.80;100.00;100605.53;4943272;29;20063;-47
2023/10/03 07:04:16;;;;;;;16.02;5.35;;;;;;;22.80;100.00;100604.75;4939944;29;20407;-42
2023/10/03 07:06:43;;;;;;;16.10;5.25;;;;;;;22.77;100.00;100617.09;4943119;29;20055;-40
2023/10/03 07:09:11;;;;;;;14.77;5.13;;;;;;;22.82;100.00;100654.00;4941060;29;20593;-40
2023/10/03 07:11:38;;;;;;;14.85;5.30;;;;;;;22.84;100.00;100653.47;4947824;29;20150;-44
2023/10/03 07:14:05;;;;;;;15.52;5.50;;;;;;;22.84;100.00;100661.97;4937942;29;20098;-41
2023/10/03 07:16:38;;;;;;;17.02;5.55;;;;;;;22.81;100.00;100657.34;4950075;29;20122;-43
2023/10/03 07:19:05;;;;;;;17.77;6.13;;;;;;;22.80;100.00;100638.75;4943166;28;20058;-42
2023/10/03 07:21:34;;;;;;;17.17;5.30;;;;;;;22.89;100.00;100652.75;4936617;28;20081;-41
2023/10/03 07:24:01;;;;;;;15.70;5.90;;;;;;;22.81;100.00;100663.00;4943092;29;20043;-42
2023/10/03 07:26:28;;;;;;;15.52;5.18;;;;;;;22.84;100.00;100659.16;4943359;29;20059;-42
2023/10/03 07:29:02;;;;;;;17.27;5.28;;;;;;;22.75;100.00;100659.34;4943790;29;20054;-40
2023/10/03 07:31:33;;;;;;;19.58;6.13;;;;;;;22.76;100.00;100658.06;4943190;29;20047;-39
2023/10/03 07:34:01;;;;;;;14.27;6.25;;;;;;;22.76;100.00;100649.56;4944911;29;20391;-38
2023/10/03 07:36:27;;;;;;;17.00;5.85;;;;;;;22.74;100.00;100658.56;4942238;29;20055;-40
2023/10/03 07:38:54;;;;;;;18.00;6.43;;;;;;;22.75;100.00;100667.84;4936893;29;20051;-42
2023/10/03 07:41:21;;;;;;;14.55;5.13;;;;;;;22.78;100.00;100638.50;4939922;29;20056;-44
2023/10/03 07:43:48;;;;;;;16.88;5.80;;;;;;;22.71;100.00;100645.41;4936187;28;20898;-44
2023/10/03 07:46:19;;;;;;;15.02;5.25;;;;;;;22.75;100.00;100688.44;4938643;28;20107;-42
2023/10/03 07:48:46;;;;;;;15.13;5.38;;;;;;;22.73;100.00;100673.22;4936091;29;20419;-43
2023/10/03 07:51:16;;;;;;;15.88;5.25;;;;;;;22.69;100.00;100681.97;4939528;28;20059;-41
2023/10/03 07:53:43;;;;;;;13.45;4.95;;;;;;;22.69;100.00;100662.16;4951389;29;20083;-44
2023/10/03 07:56:30;;;;;;;16.75;6.15;;;;;;;22.70;100.00;100640.22;4952034;29;20106;-40
2023/10/03 07:59:01;;;;;;;15.65;6.13;;;;;;;22.73;100.00;100650.56;4944371;28;20148;-45
2023/10/03 08:01:30;;;;;;;17.05;5.43;;;;;;;22.75;100.00;100682.03;4946865;29;20059;-43
2023/10/03 08:04:14;;;;;;;17.83;4.95;;;;;;;22.71;100.00;100710.56;4939308;28;20742;-40
2023/10/03 08:06:41;;;;;;;11.68;4.68;;;;;;;22.68;100.00;100688.16;4946838;29;20078;-40
2023/10/03 08:09:08;;;;;;;14.65;5.05;;;;;;;22.68;100.00;100697.41;4948460;29;20059;-41
2023/10/03 08:11:36;;;;;;;16.20;4.85;;;;;;;22.67;100.00;100695.84;4942333;29;20055;-42
2023/10/03 08:14:11;;;;;;;14.93;5.00;;;;;;;22.65;100.00;100695.59;4932195;29;20059;-42
2023/10/03 08:16:45;;;;;;;13.65;4.35;;;;;;;22.63;100.00;100691.69;4936082;29;20059;-39
2023/10/03 08:19:21;;;;;;;11.93;4.90;;;;;;;22.71;100.00;100696.41;4949057;29;20055;-43
2023/10/03 08:21:52;;;;;;;14.52;4.60;;;;;;;22.66;100.00;100702.03;4941860;29;20047;-40
2023/10/03 08:24:24;;;;;;;13.50;5.18;;;;;;;22.60;100.00;100695.53;4943429;29;20110;-43
2023/10/03 08:26:52;;;;;;;13.48;4.57;;;;;;;22.63;100.00;100714.34;4942435;29;20051;-40
2023/10/03 08:29:22;;;;;;;14.80;5.18;;;;;;;22.61;100.00;100728.28;4951914;29;20058;-42
2023/10/03 08:31:58;;;;;;;12.55;4.88;;;;;;;22.59;100.00;100723.09;4936163;29;20442;-42
2023/10/03 08:34:30;;;;;;;11.45;4.10;;;;;;;22.59;100.00;100725.94;4941635;29;20085;-38
2023/10/03 08:37:01;;;;;;;14.23;5.28;;;;;;;22.62;100.00;100753.28;4941429;29;20105;-42
2023/10/03 08:39:32;;;;;;;14.02;4.85;;;;;;;22.59;100.00;100727.97;4950627;29;20074;-40
2023/10/03 08:42:38;;;;;;;12.30;4.30;;;;;;;22.59;100.00;100740.09;4942518;29;20047;-41
2023/10/03 08:45:16;;;;;;;12.25;4.47;;;;;;;22.63;100.00;100748.38;4937984;29;20067;-42
2023/10/03 08:47:48;;;;;;;16.83;4.75;;;;;;;22.73;100.00;100744.88;4940467;29;20138;-40
2023/10/03 08:50:35;;;;;;;15.35;4.72;;;;;;;22.65;100.00;100732.44;4938138;29;20063;-42
2023/10/03 08:53:26;;;;;;;11.18;4.60;;;;;;;22.65;100.00;100731.66;4941861;29;20054;-40
2023/10/03 08:55:58;;;;;;;13.57;4.60;;;;;;;22.65;100.00;100757.94;4934930;29;20474;-40
2023/10/03 08:58:26;;;;;;;13.18;5.28;;;;;;;22.62;100.00;100770.28;4942233;29;20485;-44
2023/10/03 09:01:03;;;;;;;12.18;4.22;;;;;;;22.59;100.00;100781.81;4934260;29;20133;-41
2023/10/03 09:03:47;;;;;;;11.05;4.28;;;;;;;22.60;100.00;100797.53;4947384;29;20126;-45
2023/10/03 09:06:20;;;;;;;14.15;5.03;;;;;;;22.56;100.00;100785.63;4943720;29;20161;-41
2023/10/03 09:08:51;;;;;;;11.60;4.30;;;;;;;22.59;100.00;100776.13;4942211;29;20801;-40
2023/10/03 09:11:20;;;;;;;15.00;5.20;;;;;;;22.60;100.00;100769.19;4941929;29;20643;-43
2023/10/03 09:13:49;;;;;;;10.80;4.28;;;;;;;22.58;100.00;100763.25;4945372;29;20139;-40
2023/10/03 09:16:16;;;;;;;12.10;4.38;;;;;;;22.61;100.00;100748.84;4945666;29;20051;-45
2023/10/03 09:18:50;;;;;;;11.85;4.53;;;;;;;22.62;100.00;100758.94;4942744;29;20518;-44
2023/10/03 09:21:23;;;;;;;14.40;4.53;;;;;;;22.61;100.00;100768.69;4947712;29;20059;-40
2023/10/03 09:24:09;;;;;;;11.52;4.20;;;;;;;22.62;100.00;100760.97;4939963;29;20365;-41
2023/10/03 09:26:45;;;;;;;11.48;3.97;;;;;;;22.59;100.00;100768.44;4934364;29;20107;-41
2023/10/03 09:29:30;;;;;;;13.65;4.55;;;;;;;22.57;100.00;100779.47;4943167;29;20067;-50
2023/10/03 09:32:12;;;;;;;8.27;4.18;;;;;;;22.59;100.00;100770.47;4941763;29;20088;-49
2023/10/03 09:34:41;;;;;;;10.35;4.22;;;;;;;22.59;100.00;100782.59;4939945;29;20422;-51
2023/10/03 09:37:08;;;;;;;13.30;5.32;;;;;;;22.57;100.00;100796.47;4947828;29;20083;-48
2023/10/03 09:39:51;;;;;;;12.52;4.30;;;;;;;22.58;100.00;100788.75;4948790;29;20047;-48
2023/10/03 09:42:24;;;;;;;12.48;4.45;;;;;;;22.57;100.00;100775.84;4942911;29;20055;-49
2023/10/03 09:44:57;;;;;;;13.20;4.88;;;;;;;22.57;100.00;100802.13;4940527;29;20095;-48
2023/10/03 09:47:31;;;;;;;14.82;5.07;;;;;;;22.59;100.00;100778.97;4934698;28;20082;-50
2023/10/03 09:50:08;;;;;;;12.95;4.20;;;;;;;22.61;100.00;100785.69;4933649;29;20127;-50
2023/10/03 09:52:37;;;;;;;10.05;4.05;;;;;;;22.68;100.00;100801.50;4937812;29;20518;-49
2023/10/03 09:55:22;;;;;;;12.23;4.30;;;;;;;22.66;100.00;100792.69;4941079;29;20079;-48
2023/10/03 09:57:54;;;;;;;12.75;4.50;;;;;;;22.65;100.00;100797.59;4935738;29;20075;-48
2023/10/03 10:00:50;;;;;;;15.50;4.75;;;;;;;22.68;100.00;100798.66;4942078;29;20124;-49
2023/10/03 10:03:26;;;;;;;11.68;4.25;;;;;;;22.72;100.00;100807.72;4938966;29;20532;-48
2023/10/03 10:06:14;;;;;;;10.52;4.40;;;;;;;22.69;100.00;100797.38;4940411;29;20457;-47
2023/10/03 10:08:48;;;;;;;12.48;4.60;;;;;;;22.69;100.00;100808.72;4944660;28;20047;-49
2023/10/03 10:11:14;;;;;;;12.07;4.50;;;;;;;22.72;100.00;100802.84;4945454;29;20058;-47
2023/10/03 10:14:10;;;;;;;9.63;4.18;;;;;;;22.75;100.00;100801.81;4947156;28;20138;-48
2023/10/03 10:17:05;;;;;;;10.63;4.50;;;;;;;22.71;100.00;100804.09;4941507;28;20062;-49
2023/10/03 10:20:09;;;;;;;10.20;4.23;;;;;;;22.72;100.00;100814.16;4933413;29;20050;-49
2023/10/03 10:22:58;;;;;;;10.07;4.50;;;;;;;22.73;100.00;100823.44;4935609;29;20062;-49
2023/10/03 10:25:37;;;;;;;12.10;4.22;;;;;;;22.69;100.00;100808.72;4936358;29;20054;-48
2023/10/03 10:28:06;;;;;;;15.00;4.90;;;;;;;22.68;100.00;100801.50;4939015;29;20059;-49
2023/10/03 10:30:44;;;;;;;12.70;4.20;;;;;;;22.69;100.00;100797.38;4935260;28;20054;-49
2023/10/03 10:33:23;;;;;;;16.40;4.72;;;;;;;22.62;100.00;100809.94;4944828;28;20126;-48
2023/10/03 10:36:03;;;;;;;13.38;4.93;;;;;;;22.66;100.00;100821.03;4937501;29;20055;-50
2023/10/03 10:38:32;;;;;;;10.35;4.53;;;;;;;22.73;100.00;100809.25;4937265;29;20074;-48
2023/10/03 10:41:11;;;;;;;11.63;4.43;;;;;;;22.75;100.00;100823.72;4940380;29;20047;-49
2023/10/03 10:44:16;;;;;;;13.18;4.53;;;;;;;22.76;100.00;100822.44;4937196;28;20047;-51
2023/10/03 10:46:49;;;;;;;10.70;4.60;;;;;;;22.80;100.00;100820.94;4941088;28;20182;-51
2023/10/03 10:49:31;;;;;;;14.00;4.47;;;;;;;22.69;100.00;100826.50;4935523;29;20506;-49
2023/10/03 10:51:59;;;;;;;16.13;4.70;;;;;;;22.79;100.00;100835.63;4941944;29;20051;-50
2023/10/03 10:54:29;;;;;;;15.98;4.35;;;;;;;22.77;100.00;100830.44;4940878;29;20051;-47
2023/10/03 10:57:00;;;;;;;13.38;4.10;;;;;;;22.80;100.00;100825.81;4947203;29;20062;-47
2023/10/03 10:59:27;;;;;;;14.05;4.43;;;;;;;22.80;100.00;100837.16;4944398;29;20055;-50
2023/10/03 11:01:54;;;;;;;11.48;4.40;;;;;;;22.81;100.00;100853.66;4943389;29;20055;-47
2023/10/03 11:04:23;;;;;;;13.18;4.45;;;;;;;22.83;100.00;100873.81;4943851;29;20051;-47
2023/10/03 11:06:52;;;;;;;11.10;3.53;;;;;;;22.81;100.00;100872.75;4937198;29;20087;-48
2023/10/03 11:09:20;;;;;;;14.27;4.82;;;;;;;22.73;100.00;100888.63;4945782;29;20110;-48
2023/10/03 11:11:47;;;;;;;12.80;5.18;;;;;;;22.76;100.00;100904.63;4945874;29;20110;-49
2023/10/03 11:14:31;;;;;;;9.88;4.85;;;;;;;22.73;100.00;100889.41;4922981;29;20048;-49
2023/10/03 11:16:59;;;;;;;13.77;4.35;;;;;;;22.75;100.00;100908.75;4940374;29;20153;-49
2023/10/03 11:19:30;;;;;;;14.27;4.40;;;;;;;22.75;100.00;100903.06;4939113;28;20525;-47
2023/10/03 11:21:57;;;;;;;11.65;3.83;;;;;;;22.73;100.00;100905.63;4945108;29;20513;-49
2023/10/03 11:24:24;;;;;;;10.55;4.38;;;;;;;22.82;100.00;100903.44;4937278;29;20130;-50
2023/10/03 11:26:53;;;;;;;10.98;4.32;;;;;;;22.75;100.00;100900.25;4952971;29;20055;-48
2023/10/03 11:29:39;;;;;;;12.68;4.50;;;;;;;22.73;100.00;100903.56;4946717;29;20114;-50